RJTT/HND METAR and TAF weather

Enter ICAO airport designator
Station Type Date Time Source
RJTT METAR 2019/05/21 21:00 UTC NOAA

RJTT 212100Z 05012KT 9999 FEW015 BKN/// 17/14 Q1005 NOSIG


Station Type Date Time Source
RJTT Decoded METAR 2019/05/21 21:00 UTC NOAA

Tokyo International Airport, Japan (RJTT) 35-33N 139-47E 8M
May 21, 2019 - 05:00 PM EDT / 2019.05.21 2100 UTC
Wind: from the NE (050 degrees) at 14 MPH (12 KT):0
Visibility: greater than 7 mile(s):0
Sky conditions: mostly cloudy
Temperature: 62 F (17 C)
Dew Point: 57 F (14 C)
Relative Humidity: 82%
Pressure (altimeter): 29.68 in. Hg (1005 hPa)
ob: RJTT 212100Z 05012KT 9999 FEW015 BKN/// 17/14 Q1005 NOSIG
cycle: 21

Station Type Date Time Source
RJTT TAF 2019/05/21 18:29 UTC NOAA

TAF RJTT 211705Z 2118/2300 02010KT 9999 FEW030
BECMG 2201/2203 12010KT
BECMG 2212/2215 36005KT

Example: see airport list